sensor_id;sensor_type;location;lat;lon;timestamp;P1;durP1;ratioP1;P2;durP2;ratioP2
11699;SDS011;5906;51.660;6.674;2023-09-07T00:00:17;17.47;;;10.60;;
11699;SDS011;5906;51.660;6.674;2023-09-07T00:02:44;13.63;;;9.17;;
11699;SDS011;5906;51.660;6.674;2023-09-07T00:05:12;20.13;;;9.03;;
11699;SDS011;5906;51.660;6.674;2023-09-07T00:07:39;20.90;;;9.10;;
11699;SDS011;5906;51.660;6.674;2023-09-07T00:10:07;18.10;;;9.47;;
11699;SDS011;5906;51.660;6.674;2023-09-07T00:12:34;15.10;;;8.63;;
11699;SDS011;5906;51.660;6.674;2023-09-07T00:15:01;13.70;;;8.30;;
11699;SDS011;5906;51.660;6.674;2023-09-07T00:17:29;12.47;;;8.80;;
11699;SDS011;5906;51.660;6.674;2023-09-07T00:19:56;12.90;;;8.27;;
11699;SDS011;5906;51.660;6.674;2023-09-07T00:22:24;15.53;;;8.80;;
11699;SDS011;5906;51.660;6.674;2023-09-07T00:24:52;15.90;;;8.30;;
11699;SDS011;5906;51.660;6.674;2023-09-07T00:27:19;15.53;;;8.87;;
11699;SDS011;5906;51.660;6.674;2023-09-07T00:29:46;14.20;;;8.77;;
11699;SDS011;5906;51.660;6.674;2023-09-07T00:32:13;14.13;;;8.70;;
11699;SDS011;5906;51.660;6.674;2023-09-07T00:34:40;12.57;;;8.60;;
11699;SDS011;5906;51.660;6.674;2023-09-07T00:37:07;12.73;;;8.90;;
11699;SDS011;5906;51.660;6.674;2023-09-07T00:39:34;14.67;;;8.47;;
11699;SDS011;5906;51.660;6.674;2023-09-07T00:42:01;11.43;;;8.47;;
11699;SDS011;5906;51.660;6.674;2023-09-07T00:44:28;15.00;;;9.37;;
11699;SDS011;5906;51.660;6.674;2023-09-07T00:46:56;13.77;;;8.33;;
11699;SDS011;5906;51.660;6.674;2023-09-07T00:49:24;15.83;;;8.17;;
11699;SDS011;5906;51.660;6.674;2023-09-07T00:51:52;15.17;;;8.60;;
11699;SDS011;5906;51.660;6.674;2023-09-07T00:54:19;14.17;;;9.90;;
11699;SDS011;5906;51.660;6.674;2023-09-07T00:56:47;16.27;;;8.97;;
11699;SDS011;5906;51.660;6.674;2023-09-07T00:59:14;18.57;;;9.43;;
11699;SDS011;5906;51.660;6.674;2023-09-07T01:01:41;12.90;;;9.30;;
11699;SDS011;5906;51.660;6.674;2023-09-07T01:04:09;14.20;;;9.23;;
11699;SDS011;5906;51.660;6.674;2023-09-07T01:06:50;20.50;;;9.50;;
11699;SDS011;5906;51.660;6.674;2023-09-07T01:09:23;12.43;;;8.80;;
11699;SDS011;5906;51.660;6.674;2023-09-07T01:11:52;12.57;;;9.10;;
11699;SDS011;5906;51.660;6.674;2023-09-07T01:14:20;13.80;;;9.67;;
11699;SDS011;5906;51.660;6.674;2023-09-07T01:16:48;13.00;;;8.80;;
11699;SDS011;5906;51.660;6.674;2023-09-07T01:19:17;15.30;;;8.73;;
11699;SDS011;5906;51.660;6.674;2023-09-07T01:21:44;14.33;;;8.90;;
11699;SDS011;5906;51.660;6.674;2023-09-07T01:24:12;12.97;;;9.00;;
11699;SDS011;5906;51.660;6.674;2023-09-07T01:26:42;14.70;;;9.07;;
11699;SDS011;5906;51.660;6.674;2023-09-07T01:29:09;15.13;;;9.20;;
11699;SDS011;5906;51.660;6.674;2023-09-07T01:31:36;16.97;;;8.17;;
11699;SDS011;5906;51.660;6.674;2023-09-07T01:34:05;14.33;;;8.90;;
11699;SDS011;5906;51.660;6.674;2023-09-07T01:36:32;20.33;;;9.10;;
11699;SDS011;5906;51.660;6.674;2023-09-07T01:39:00;11.93;;;8.43;;
11699;SDS011;5906;51.660;6.674;2023-09-07T01:41:27;16.47;;;8.87;;
11699;SDS011;5906;51.660;6.674;2023-09-07T01:43:55;17.30;;;9.80;;
11699;SDS011;5906;51.660;6.674;2023-09-07T01:46:23;13.73;;;8.90;;
11699;SDS011;5906;51.660;6.674;2023-09-07T01:48:50;14.60;;;9.63;;
11699;SDS011;5906;51.660;6.674;2023-09-07T01:51:17;16.37;;;9.20;;
11699;SDS011;5906;51.660;6.674;2023-09-07T01:53:46;18.37;;;8.70;;
11699;SDS011;5906;51.660;6.674;2023-09-07T01:56:17;15.00;;;10.60;;
11699;SDS011;5906;51.660;6.674;2023-09-07T01:58:45;15.60;;;9.40;;
11699;SDS011;5906;51.660;6.674;2023-09-07T02:01:25;17.90;;;9.80;;
11699;SDS011;5906;51.660;6.674;2023-09-07T02:03:56;12.40;;;9.73;;
11699;SDS011;5906;51.660;6.674;2023-09-07T02:06:23;17.20;;;8.83;;
11699;SDS011;5906;51.660;6.674;2023-09-07T02:08:53;10.47;;;8.43;;
11699;SDS011;5906;51.660;6.674;2023-09-07T02:11:20;12.90;;;8.90;;
11699;SDS011;5906;51.660;6.674;2023-09-07T02:13:47;11.60;;;8.43;;
11699;SDS011;5906;51.660;6.674;2023-09-07T02:16:14;16.33;;;9.17;;
11699;SDS011;5906;51.660;6.674;2023-09-07T02:18:42;17.20;;;10.23;;
11699;SDS011;5906;51.660;6.674;2023-09-07T02:21:15;19.33;;;9.67;;
11699;SDS011;5906;51.660;6.674;2023-09-07T02:23:42;12.10;;;8.87;;
11699;SDS011;5906;51.660;6.674;2023-09-07T02:26:09;18.67;;;9.70;;
11699;SDS011;5906;51.660;6.674;2023-09-07T02:28:36;12.90;;;8.40;;
11699;SDS011;5906;51.660;6.674;2023-09-07T02:31:03;15.63;;;8.90;;
11699;SDS011;5906;51.660;6.674;2023-09-07T02:33:32;13.30;;;8.73;;
11699;SDS011;5906;51.660;6.674;2023-09-07T02:36:00;13.37;;;8.83;;
11699;SDS011;5906;51.660;6.674;2023-09-07T02:38:27;15.07;;;9.17;;
11699;SDS011;5906;51.660;6.674;2023-09-07T02:40:54;12.37;;;8.63;;
11699;SDS011;5906;51.660;6.674;2023-09-07T02:43:22;16.00;;;8.33;;
11699;SDS011;5906;51.660;6.674;2023-09-07T02:45:50;12.27;;;8.63;;
11699;SDS011;5906;51.660;6.674;2023-09-07T02:48:17;13.90;;;9.00;;
11699;SDS011;5906;51.660;6.674;2023-09-07T02:50:44;12.00;;;7.70;;
11699;SDS011;5906;51.660;6.674;2023-09-07T02:53:15;13.77;;;8.10;;
11699;SDS011;5906;51.660;6.674;2023-09-07T02:55:43;13.73;;;8.90;;
11699;SDS011;5906;51.660;6.674;2023-09-07T02:58:10;13.07;;;9.03;;
11699;SDS011;5906;51.660;6.674;2023-09-07T03:00:43;13.50;;;8.00;;
11699;SDS011;5906;51.660;6.674;2023-09-07T03:03:11;11.63;;;7.90;;
11699;SDS011;5906;51.660;6.674;2023-09-07T03:05:40;16.53;;;8.67;;
11699;SDS011;5906;51.660;6.674;2023-09-07T03:08:08;13.57;;;8.57;;
11699;SDS011;5906;51.660;6.674;2023-09-07T03:10:35;13.47;;;8.53;;
11699;SDS011;5906;51.660;6.674;2023-09-07T03:13:03;15.10;;;8.20;;
11699;SDS011;5906;51.660;6.674;2023-09-07T03:15:30;12.80;;;8.13;;
11699;SDS011;5906;51.660;6.674;2023-09-07T03:17:57;11.50;;;8.40;;
11699;SDS011;5906;51.660;6.674;2023-09-07T03:20:25;14.10;;;8.60;;
11699;SDS011;5906;51.660;6.674;2023-09-07T03:22:52;12.80;;;8.20;;
11699;SDS011;5906;51.660;6.674;2023-09-07T03:25:19;11.77;;;8.87;;
11699;SDS011;5906;51.660;6.674;2023-09-07T03:27:46;23.07;;;9.10;;
11699;SDS011;5906;51.660;6.674;2023-09-07T03:30:13;14.90;;;8.47;;
11699;SDS011;5906;51.660;6.674;2023-09-07T03:32:41;15.80;;;8.63;;
11699;SDS011;5906;51.660;6.674;2023-09-07T03:35:08;10.97;;;8.10;;
11699;SDS011;5906;51.660;6.674;2023-09-07T03:37:36;14.53;;;8.67;;
11699;SDS011;5906;51.660;6.674;2023-09-07T03:40:05;11.93;;;8.47;;
11699;SDS011;5906;51.660;6.674;2023-09-07T03:42:35;10.97;;;8.37;;
11699;SDS011;5906;51.660;6.674;2023-09-07T03:45:02;13.57;;;9.17;;
11699;SDS011;5906;51.660;6.674;2023-09-07T03:47:30;20.37;;;9.27;;
11699;SDS011;5906;51.660;6.674;2023-09-07T03:49:57;13.60;;;8.40;;
11699;SDS011;5906;51.660;6.674;2023-09-07T03:52:25;15.43;;;8.80;;
11699;SDS011;5906;51.660;6.674;2023-09-07T03:54:53;17.73;;;8.87;;
11699;SDS011;5906;51.660;6.674;2023-09-07T03:57:21;13.30;;;8.63;;
11699;SDS011;5906;51.660;6.674;2023-09-07T03:59:49;14.50;;;8.70;;
11699;SDS011;5906;51.660;6.674;2023-09-07T04:02:16;21.33;;;8.73;;
11699;SDS011;5906;51.660;6.674;2023-09-07T04:04:47;14.93;;;8.30;;
11699;SDS011;5906;51.660;6.674;2023-09-07T04:07:18;12.07;;;8.07;;
11699;SDS011;5906;51.660;6.674;2023-09-07T04:09:46;12.73;;;8.83;;
11699;SDS011;5906;51.660;6.674;2023-09-07T04:12:13;18.33;;;9.87;;
11699;SDS011;5906;51.660;6.674;2023-09-07T04:14:40;12.80;;;8.67;;
11699;SDS011;5906;51.660;6.674;2023-09-07T04:17:08;13.13;;;9.23;;
11699;SDS011;5906;51.660;6.674;2023-09-07T04:19:35;15.70;;;9.00;;
11699;SDS011;5906;51.660;6.674;2023-09-07T04:22:02;12.63;;;9.10;;
11699;SDS011;5906;51.660;6.674;2023-09-07T04:24:29;15.60;;;9.37;;
11699;SDS011;5906;51.660;6.674;2023-09-07T04:27:00;18.03;;;9.37;;
11699;SDS011;5906;51.660;6.674;2023-09-07T04:29:28;12.50;;;8.33;;
11699;SDS011;5906;51.660;6.674;2023-09-07T04:31:55;16.30;;;8.60;;
11699;SDS011;5906;51.660;6.674;2023-09-07T04:34:22;14.27;;;9.50;;
11699;SDS011;5906;51.660;6.674;2023-09-07T04:36:49;20.33;;;9.50;;
11699;SDS011;5906;51.660;6.674;2023-09-07T04:39:16;15.27;;;8.67;;
11699;SDS011;5906;51.660;6.674;2023-09-07T04:41:44;14.00;;;8.43;;
11699;SDS011;5906;51.660;6.674;2023-09-07T04:44:11;16.80;;;9.30;;
11699;SDS011;5906;51.660;6.674;2023-09-07T04:46:38;15.07;;;9.37;;
11699;SDS011;5906;51.660;6.674;2023-09-07T04:49:05;17.03;;;9.83;;
11699;SDS011;5906;51.660;6.674;2023-09-07T04:51:33;11.40;;;8.67;;
11699;SDS011;5906;51.660;6.674;2023-09-07T04:54:01;12.43;;;8.83;;
11699;SDS011;5906;51.660;6.674;2023-09-07T04:56:28;10.07;;;7.93;;
11699;SDS011;5906;51.660;6.674;2023-09-07T04:58:55;22.40;;;9.00;;
11699;SDS011;5906;51.660;6.674;2023-09-07T05:01:22;17.10;;;8.33;;
11699;SDS011;5906;51.660;6.674;2023-09-07T05:03:50;18.60;;;9.83;;
11699;SDS011;5906;51.660;6.674;2023-09-07T05:06:18;13.83;;;9.10;;
11699;SDS011;5906;51.660;6.674;2023-09-07T05:08:45;13.00;;;9.13;;
11699;SDS011;5906;51.660;6.674;2023-09-07T05:11:12;14.37;;;10.13;;
11699;SDS011;5906;51.660;6.674;2023-09-07T05:13:39;20.23;;;9.30;;
11699;SDS011;5906;51.660;6.674;2023-09-07T05:16:07;15.37;;;10.17;;
11699;SDS011;5906;51.660;6.674;2023-09-07T05:18:34;15.43;;;9.70;;
11699;SDS011;5906;51.660;6.674;2023-09-07T05:21:10;16.03;;;9.07;;
11699;SDS011;5906;51.660;6.674;2023-09-07T05:23:41;15.53;;;8.97;;
11699;SDS011;5906;51.660;6.674;2023-09-07T05:26:09;13.80;;;9.30;;
11699;SDS011;5906;51.660;6.674;2023-09-07T05:28:36;14.87;;;9.30;;
11699;SDS011;5906;51.660;6.674;2023-09-07T05:31:06;12.47;;;8.83;;
11699;SDS011;5906;51.660;6.674;2023-09-07T05:33:34;12.20;;;9.17;;
11699;SDS011;5906;51.660;6.674;2023-09-07T05:36:01;15.80;;;10.20;;
11699;SDS011;5906;51.660;6.674;2023-09-07T05:38:28;21.93;;;9.37;;
11699;SDS011;5906;51.660;6.674;2023-09-07T05:40:59;15.90;;;9.77;;
11699;SDS011;5906;51.660;6.674;2023-09-07T05:43:26;14.77;;;9.80;;
11699;SDS011;5906;51.660;6.674;2023-09-07T05:45:53;17.40;;;8.43;;
11699;SDS011;5906;51.660;6.674;2023-09-07T05:48:20;19.20;;;10.20;;
11699;SDS011;5906;51.660;6.674;2023-09-07T05:50:47;23.10;;;9.70;;
11699;SDS011;5906;51.660;6.674;2023-09-07T05:53:15;18.37;;;10.20;;
11699;SDS011;5906;51.660;6.674;2023-09-07T05:55:42;14.87;;;9.00;;
11699;SDS011;5906;51.660;6.674;2023-09-07T05:58:09;17.73;;;9.23;;
11699;SDS011;5906;51.660;6.674;2023-09-07T06:00:36;14.27;;;9.17;;
11699;SDS011;5906;51.660;6.674;2023-09-07T06:03:05;17.60;;;9.10;;
11699;SDS011;5906;51.660;6.674;2023-09-07T06:05:34;22.70;;;10.30;;
11699;SDS011;5906;51.660;6.674;2023-09-07T06:08:02;11.50;;;8.60;;
11699;SDS011;5906;51.660;6.674;2023-09-07T06:10:29;17.10;;;9.17;;
11699;SDS011;5906;51.660;6.674;2023-09-07T06:12:57;23.30;;;8.77;;
11699;SDS011;5906;51.660;6.674;2023-09-07T06:15:26;12.87;;;8.80;;
11699;SDS011;5906;51.660;6.674;2023-09-07T06:17:56;14.20;;;8.90;;
11699;SDS011;5906;51.660;6.674;2023-09-07T06:20:23;17.23;;;10.00;;
11699;SDS011;5906;51.660;6.674;2023-09-07T06:22:50;13.37;;;8.80;;
11699;SDS011;5906;51.660;6.674;2023-09-07T06:25:17;28.10;;;9.60;;
11699;SDS011;5906;51.660;6.674;2023-09-07T06:27:45;11.67;;;8.50;;
11699;SDS011;5906;51.660;6.674;2023-09-07T06:30:12;18.73;;;10.10;;
11699;SDS011;5906;51.660;6.674;2023-09-07T06:32:39;13.63;;;8.90;;
11699;SDS011;5906;51.660;6.674;2023-09-07T06:35:07;12.50;;;8.33;;
11699;SDS011;5906;51.660;6.674;2023-09-07T06:37:34;12.77;;;8.57;;
11699;SDS011;5906;51.660;6.674;2023-09-07T06:40:02;14.43;;;8.67;;
11699;SDS011;5906;51.660;6.674;2023-09-07T06:42:30;13.17;;;8.77;;
11699;SDS011;5906;51.660;6.674;2023-09-07T06:44:57;17.23;;;8.80;;
11699;SDS011;5906;51.660;6.674;2023-09-07T06:47:24;11.33;;;8.57;;
11699;SDS011;5906;51.660;6.674;2023-09-07T06:49:53;12.20;;;8.20;;
11699;SDS011;5906;51.660;6.674;2023-09-07T06:52:20;12.03;;;7.53;;
11699;SDS011;5906;51.660;6.674;2023-09-07T06:54:50;12.50;;;7.70;;
11699;SDS011;5906;51.660;6.674;2023-09-07T06:57:19;11.20;;;7.10;;
11699;SDS011;5906;51.660;6.674;2023-09-07T06:59:47;14.80;;;7.40;;
11699;SDS011;5906;51.660;6.674;2023-09-07T07:02:15;8.70;;;6.93;;
11699;SDS011;5906;51.660;6.674;2023-09-07T07:04:42;22.70;;;8.33;;
11699;SDS011;5906;51.660;6.674;2023-09-07T07:07:10;12.90;;;7.13;;
11699;SDS011;5906;51.660;6.674;2023-09-07T07:09:37;15.97;;;7.77;;
11699;SDS011;5906;51.660;6.674;2023-09-07T07:12:04;12.93;;;7.57;;
11699;SDS011;5906;51.660;6.674;2023-09-07T07:14:32;13.20;;;7.63;;
11699;SDS011;5906;51.660;6.674;2023-09-07T07:16:59;17.60;;;7.40;;
11699;SDS011;5906;51.660;6.674;2023-09-07T07:19:28;9.80;;;7.60;;
11699;SDS011;5906;51.660;6.674;2023-09-07T07:21:55;11.43;;;7.77;;
11699;SDS011;5906;51.660;6.674;2023-09-07T07:24:23;12.30;;;7.47;;
11699;SDS011;5906;51.660;6.674;2023-09-07T07:26:50;18.80;;;6.70;;
11699;SDS011;5906;51.660;6.674;2023-09-07T07:29:17;11.60;;;6.03;;
11699;SDS011;5906;51.660;6.674;2023-09-07T07:31:44;13.13;;;6.97;;
11699;SDS011;5906;51.660;6.674;2023-09-07T07:34:12;11.17;;;6.50;;
11699;SDS011;5906;51.660;6.674;2023-09-07T07:36:40;13.30;;;7.83;;
11699;SDS011;5906;51.660;6.674;2023-09-07T07:39:07;14.17;;;7.50;;
11699;SDS011;5906;51.660;6.674;2023-09-07T07:41:36;11.90;;;6.80;;
11699;SDS011;5906;51.660;6.674;2023-09-07T07:44:06;10.57;;;7.37;;
11699;SDS011;5906;51.660;6.674;2023-09-07T07:46:33;14.73;;;6.47;;
11699;SDS011;5906;51.660;6.674;2023-09-07T07:49:00;11.03;;;7.20;;
11699;SDS011;5906;51.660;6.674;2023-09-07T07:51:28;10.23;;;6.30;;
11699;SDS011;5906;51.660;6.674;2023-09-07T07:53:55;9.17;;;6.17;;
11699;SDS011;5906;51.660;6.674;2023-09-07T07:56:23;9.07;;;5.90;;
11699;SDS011;5906;51.660;6.674;2023-09-07T07:58:50;11.43;;;5.93;;
11699;SDS011;5906;51.660;6.674;2023-09-07T08:01:17;11.73;;;5.70;;
11699;SDS011;5906;51.660;6.674;2023-09-07T08:03:47;9.23;;;5.70;;
11699;SDS011;5906;51.660;6.674;2023-09-07T08:06:14;15.33;;;6.17;;
11699;SDS011;5906;51.660;6.674;2023-09-07T08:08:41;14.90;;;6.30;;
11699;SDS011;5906;51.660;6.674;2023-09-07T08:11:08;15.30;;;6.80;;
11699;SDS011;5906;51.660;6.674;2023-09-07T08:13:35;9.60;;;5.70;;
11699;SDS011;5906;51.660;6.674;2023-09-07T08:16:04;14.93;;;5.83;;
11699;SDS011;5906;51.660;6.674;2023-09-07T08:18:34;14.90;;;5.80;;
11699;SDS011;5906;51.660;6.674;2023-09-07T08:21:02;9.20;;;5.10;;
11699;SDS011;5906;51.660;6.674;2023-09-07T08:23:29;10.57;;;6.13;;
11699;SDS011;5906;51.660;6.674;2023-09-07T08:25:57;7.43;;;5.40;;
11699;SDS011;5906;51.660;6.674;2023-09-07T08:28:25;12.20;;;6.23;;
11699;SDS011;5906;51.660;6.674;2023-09-07T08:30:53;9.40;;;5.97;;
11699;SDS011;5906;51.660;6.674;2023-09-07T08:33:21;8.03;;;5.80;;
11699;SDS011;5906;51.660;6.674;2023-09-07T08:36:06;22.30;;;6.23;;
11699;SDS011;5906;51.660;6.674;2023-09-07T08:38:35;7.90;;;5.53;;
11699;SDS011;5906;51.660;6.674;2023-09-07T08:41:02;9.07;;;5.80;;
11699;SDS011;5906;51.660;6.674;2023-09-07T08:43:35;6.87;;;5.50;;
11699;SDS011;5906;51.660;6.674;2023-09-07T08:46:18;7.80;;;5.40;;
11699;SDS011;5906;51.660;6.674;2023-09-07T08:48:49;9.63;;;5.90;;
11699;SDS011;5906;51.660;6.674;2023-09-07T08:51:17;7.67;;;5.63;;
11699;SDS011;5906;51.660;6.674;2023-09-07T08:53:46;10.73;;;5.20;;
11699;SDS011;5906;51.660;6.674;2023-09-07T08:56:14;8.20;;;5.87;;
11699;SDS011;5906;51.660;6.674;2023-09-07T08:58:43;7.03;;;5.00;;
11699;SDS011;5906;51.660;6.674;2023-09-07T09:01:16;14.67;;;5.43;;
11699;SDS011;5906;51.660;6.674;2023-09-07T09:03:45;9.37;;;5.87;;
11699;SDS011;5906;51.660;6.674;2023-09-07T09:06:12;9.93;;;5.90;;
11699;SDS011;5906;51.660;6.674;2023-09-07T09:08:46;7.77;;;5.60;;
11699;SDS011;5906;51.660;6.674;2023-09-07T09:11:19;7.00;;;4.93;;
11699;SDS011;5906;51.660;6.674;2023-09-07T09:13:47;10.87;;;5.70;;
11699;SDS011;5906;51.660;6.674;2023-09-07T09:16:15;16.37;;;5.60;;
11699;SDS011;5906;51.660;6.674;2023-09-07T09:18:58;7.87;;;4.93;;
11699;SDS011;5906;51.660;6.674;2023-09-07T09:21:26;6.70;;;5.10;;
11699;SDS011;5906;51.660;6.674;2023-09-07T09:23:54;9.17;;;4.80;;
11699;SDS011;5906;51.660;6.674;2023-09-07T09:26:23;6.13;;;4.77;;
11699;SDS011;5906;51.660;6.674;2023-09-07T09:28:55;9.13;;;4.70;;
11699;SDS011;5906;51.660;6.674;2023-09-07T09:31:23;10.90;;;5.50;;
11699;SDS011;5906;51.660;6.674;2023-09-07T09:33:51;7.57;;;4.97;;
11699;SDS011;5906;51.660;6.674;2023-09-07T09:36:19;6.27;;;4.40;;
11699;SDS011;5906;51.660;6.674;2023-09-07T09:38:47;6.93;;;4.67;;
11699;SDS011;5906;51.660;6.674;2023-09-07T09:41:20;7.20;;;5.07;;
11699;SDS011;5906;51.660;6.674;2023-09-07T09:43:47;8.40;;;5.03;;
11699;SDS011;5906;51.660;6.674;2023-09-07T09:46:16;8.87;;;5.37;;
11699;SDS011;5906;51.660;6.674;2023-09-07T09:48:44;7.93;;;4.73;;
11699;SDS011;5906;51.660;6.674;2023-09-07T09:51:11;8.97;;;4.27;;
11699;SDS011;5906;51.660;6.674;2023-09-07T09:53:41;5.40;;;4.50;;
11699;SDS011;5906;51.660;6.674;2023-09-07T09:56:09;5.27;;;4.77;;
11699;SDS011;5906;51.660;6.674;2023-09-07T09:58:36;11.30;;;5.20;;
11699;SDS011;5906;51.660;6.674;2023-09-07T10:01:04;7.93;;;4.90;;
11699;SDS011;5906;51.660;6.674;2023-09-07T10:03:34;7.83;;;4.87;;
11699;SDS011;5906;51.660;6.674;2023-09-07T10:06:22;8.30;;;4.63;;
11699;SDS011;5906;51.660;6.674;2023-09-07T10:08:59;5.07;;;4.23;;
11699;SDS011;5906;51.660;6.674;2023-09-07T10:11:37;6.83;;;4.40;;
11699;SDS011;5906;51.660;6.674;2023-09-07T10:14:05;8.57;;;4.57;;
11699;SDS011;5906;51.660;6.674;2023-09-07T10:16:47;7.83;;;5.17;;
11699;SDS011;5906;51.660;6.674;2023-09-07T10:19:22;9.10;;;4.67;;
11699;SDS011;5906;51.660;6.674;2023-09-07T10:21:52;9.13;;;4.63;;
11699;SDS011;5906;51.660;6.674;2023-09-07T10:24:26;6.93;;;4.37;;
11699;SDS011;5906;51.660;6.674;2023-09-07T10:26:59;10.60;;;4.50;;
11699;SDS011;5906;51.660;6.674;2023-09-07T10:29:26;5.67;;;4.10;;
11699;SDS011;5906;51.660;6.674;2023-09-07T10:31:54;12.43;;;4.43;;
11699;SDS011;5906;51.660;6.674;2023-09-07T10:34:21;9.00;;;4.40;;
11699;SDS011;5906;51.660;6.674;2023-09-07T10:36:49;4.60;;;3.90;;
11699;SDS011;5906;51.660;6.674;2023-09-07T10:39:22;6.83;;;4.30;;
11699;SDS011;5906;51.660;6.674;2023-09-07T10:41:49;7.97;;;4.30;;
11699;SDS011;5906;51.660;6.674;2023-09-07T10:44:16;7.20;;;4.83;;
11699;SDS011;5906;51.660;6.674;2023-09-07T10:46:52;8.63;;;4.93;;
11699;SDS011;5906;51.660;6.674;2023-09-07T10:49:19;6.90;;;4.67;;
11699;SDS011;5906;51.660;6.674;2023-09-07T10:51:46;7.83;;;4.20;;
11699;SDS011;5906;51.660;6.674;2023-09-07T10:54:18;11.13;;;4.93;;
11699;SDS011;5906;51.660;6.674;2023-09-07T10:56:49;6.50;;;4.50;;
11699;SDS011;5906;51.660;6.674;2023-09-07T10:59:17;10.30;;;4.73;;
11699;SDS011;5906;51.660;6.674;2023-09-07T11:01:45;10.43;;;3.80;;
11699;SDS011;5906;51.660;6.674;2023-09-07T11:04:12;10.50;;;4.50;;
11699;SDS011;5906;51.660;6.674;2023-09-07T11:06:40;5.03;;;4.53;;
11699;SDS011;5906;51.660;6.674;2023-09-07T11:09:08;7.03;;;4.70;;
11699;SDS011;5906;51.660;6.674;2023-09-07T11:11:38;5.60;;;4.27;;
11699;SDS011;5906;51.660;6.674;2023-09-07T11:14:05;10.17;;;5.17;;
11699;SDS011;5906;51.660;6.674;2023-09-07T11:16:33;5.00;;;4.50;;
11699;SDS011;5906;51.660;6.674;2023-09-07T11:19:04;18.30;;;4.67;;
11699;SDS011;5906;51.660;6.674;2023-09-07T11:21:34;11.43;;;4.20;;
11699;SDS011;5906;51.660;6.674;2023-09-07T11:24:02;6.53;;;4.53;;
11699;SDS011;5906;51.660;6.674;2023-09-07T11:26:43;9.80;;;5.13;;
11699;SDS011;5906;51.660;6.674;2023-09-07T11:29:15;9.30;;;4.57;;
11699;SDS011;5906;51.660;6.674;2023-09-07T11:31:44;7.47;;;4.20;;
11699;SDS011;5906;51.660;6.674;2023-09-07T11:34:12;11.93;;;5.20;;
11699;SDS011;5906;51.660;6.674;2023-09-07T11:36:41;10.65;;;4.78;;
11699;SDS011;5906;51.660;6.674;2023-09-07T11:39:10;5.25;;;4.22;;
11699;SDS011;5906;51.660;6.674;2023-09-07T11:41:42;14.52;;;5.50;;
11699;SDS011;5906;51.660;6.674;2023-09-07T11:44:11;5.88;;;4.57;;
11699;SDS011;5906;51.660;6.674;2023-09-07T11:46:39;5.60;;;4.50;;
11699;SDS011;5906;51.660;6.674;2023-09-07T11:49:09;6.22;;;4.90;;
11699;SDS011;5906;51.660;6.674;2023-09-07T11:51:38;5.13;;;4.00;;
11699;SDS011;5906;51.660;6.674;2023-09-07T11:54:07;5.25;;;4.47;;
11699;SDS011;5906;51.660;6.674;2023-09-07T11:56:37;6.78;;;4.13;;
11699;SDS011;5906;51.660;6.674;2023-09-07T11:59:10;5.38;;;4.07;;
11699;SDS011;5906;51.660;6.674;2023-09-07T12:01:38;6.18;;;4.30;;
11699;SDS011;5906;51.660;6.674;2023-09-07T12:04:08;4.47;;;4.07;;
11699;SDS011;5906;51.660;6.674;2023-09-07T12:06:37;6.15;;;4.05;;
11699;SDS011;5906;51.660;6.674;2023-09-07T12:09:06;6.07;;;4.32;;
11699;SDS011;5906;51.660;6.674;2023-09-07T12:11:36;8.52;;;4.32;;
11699;SDS011;5906;51.660;6.674;2023-09-07T12:14:04;5.60;;;4.15;;
11699;SDS011;5906;51.660;6.674;2023-09-07T12:16:32;5.43;;;4.47;;
11699;SDS011;5906;51.660;6.674;2023-09-07T12:19:01;4.40;;;4.00;;
11699;SDS011;5906;51.660;6.674;2023-09-07T12:21:31;8.38;;;4.35;;
11699;SDS011;5906;51.660;6.674;2023-09-07T12:23:59;6.55;;;4.57;;
11699;SDS011;5906;51.660;6.674;2023-09-07T12:26:29;5.22;;;4.72;;
11699;SDS011;5906;51.660;6.674;2023-09-07T12:28:58;5.45;;;4.50;;
11699;SDS011;5906;51.660;6.674;2023-09-07T12:31:29;7.80;;;4.70;;
11699;SDS011;5906;51.660;6.674;2023-09-07T12:33:59;5.80;;;4.60;;
11699;SDS011;5906;51.660;6.674;2023-09-07T12:36:31;6.53;;;4.07;;
11699;SDS011;5906;51.660;6.674;2023-09-07T12:38:58;7.35;;;4.60;;
11699;SDS011;5906;51.660;6.674;2023-09-07T12:41:30;5.93;;;4.13;;
11699;SDS011;5906;51.660;6.674;2023-09-07T12:43:58;5.30;;;4.30;;
11699;SDS011;5906;51.660;6.674;2023-09-07T12:46:27;8.35;;;5.10;;
11699;SDS011;5906;51.660;6.674;2023-09-07T12:48:55;7.50;;;4.30;;
11699;SDS011;5906;51.660;6.674;2023-09-07T12:51:22;14.57;;;4.78;;
11699;SDS011;5906;51.660;6.674;2023-09-07T12:53:50;6.20;;;4.70;;
11699;SDS011;5906;51.660;6.674;2023-09-07T12:56:18;6.80;;;4.30;;
11699;SDS011;5906;51.660;6.674;2023-09-07T12:58:45;6.65;;;4.50;;
11699;SDS011;5906;51.660;6.674;2023-09-07T13:01:12;9.45;;;4.28;;
11699;SDS011;5906;51.660;6.674;2023-09-07T13:03:42;5.07;;;4.40;;
11699;SDS011;5906;51.660;6.674;2023-09-07T13:06:09;6.88;;;4.50;;
11699;SDS011;5906;51.660;6.674;2023-09-07T13:08:37;5.13;;;4.50;;
11699;SDS011;5906;51.660;6.674;2023-09-07T13:11:04;6.03;;;4.25;;
11699;SDS011;5906;51.660;6.674;2023-09-07T13:13:31;5.50;;;4.72;;
11699;SDS011;5906;51.660;6.674;2023-09-07T13:15:58;4.47;;;4.07;;
11699;SDS011;5906;51.660;6.674;2023-09-07T13:18:25;5.00;;;4.50;;
11699;SDS011;5906;51.660;6.674;2023-09-07T13:20:53;10.95;;;4.72;;
11699;SDS011;5906;51.660;6.674;2023-09-07T13:23:26;5.82;;;4.38;;
11699;SDS011;5906;51.660;6.674;2023-09-07T13:25:54;6.45;;;4.45;;
11699;SDS011;5906;51.660;6.674;2023-09-07T13:28:22;6.25;;;4.60;;
11699;SDS011;5906;51.660;6.674;2023-09-07T13:30:50;6.00;;;4.20;;
11699;SDS011;5906;51.660;6.674;2023-09-07T13:33:17;10.65;;;4.57;;
11699;SDS011;5906;51.660;6.674;2023-09-07T13:35:44;6.25;;;3.80;;
11699;SDS011;5906;51.660;6.674;2023-09-07T13:38:12;8.93;;;4.45;;
11699;SDS011;5906;51.660;6.674;2023-09-07T13:40:39;4.47;;;4.03;;
11699;SDS011;5906;51.660;6.674;2023-09-07T13:43:06;5.57;;;4.55;;
11699;SDS011;5906;51.660;6.674;2023-09-07T13:45:33;4.50;;;4.10;;
11699;SDS011;5906;51.660;6.674;2023-09-07T13:48:01;6.18;;;4.45;;
11699;SDS011;5906;51.660;6.674;2023-09-07T13:50:28;5.28;;;4.78;;
11699;SDS011;5906;51.660;6.674;2023-09-07T13:52:56;5.15;;;4.10;;
11699;SDS011;5906;51.660;6.674;2023-09-07T13:55:23;5.57;;;4.32;;
11699;SDS011;5906;51.660;6.674;2023-09-07T13:57:52;8.30;;;4.80;;
11699;SDS011;5906;51.660;6.674;2023-09-07T14:00:19;5.80;;;4.80;;
11699;SDS011;5906;51.660;6.674;2023-09-07T14:02:46;6.40;;;4.97;;
11699;SDS011;5906;51.660;6.674;2023-09-07T14:05:13;5.90;;;5.28;;
11699;SDS011;5906;51.660;6.674;2023-09-07T14:07:40;7.60;;;4.95;;
11699;SDS011;5906;51.660;6.674;2023-09-07T14:10:08;6.57;;;4.85;;
11699;SDS011;5906;51.660;6.674;2023-09-07T14:12:35;14.38;;;5.00;;
11699;SDS011;5906;51.660;6.674;2023-09-07T14:15:02;7.75;;;5.57;;
11699;SDS011;5906;51.660;6.674;2023-09-07T14:17:29;12.80;;;5.15;;
11699;SDS011;5906;51.660;6.674;2023-09-07T14:19:56;6.45;;;4.85;;
11699;SDS011;5906;51.660;6.674;2023-09-07T14:22:23;6.22;;;4.82;;
11699;SDS011;5906;51.660;6.674;2023-09-07T14:24:50;5.97;;;5.37;;
11699;SDS011;5906;51.660;6.674;2023-09-07T14:27:17;7.50;;;4.82;;
11699;SDS011;5906;51.660;6.674;2023-09-07T14:29:44;12.75;;;5.40;;
11699;SDS011;5906;51.660;6.674;2023-09-07T14:32:11;10.48;;;5.00;;
11699;SDS011;5906;51.660;6.674;2023-09-07T14:34:38;8.13;;;4.88;;
11699;SDS011;5906;51.660;6.674;2023-09-07T14:37:05;5.25;;;4.70;;
11699;SDS011;5906;51.660;6.674;2023-09-07T14:39:32;6.07;;;5.00;;
11699;SDS011;5906;51.660;6.674;2023-09-07T14:42:02;7.15;;;4.90;;
11699;SDS011;5906;51.660;6.674;2023-09-07T14:44:32;10.95;;;4.72;;
11699;SDS011;5906;51.660;6.674;2023-09-07T14:47:00;6.30;;;4.70;;
11699;SDS011;5906;51.660;6.674;2023-09-07T14:49:27;5.90;;;5.28;;
11699;SDS011;5906;51.660;6.674;2023-09-07T14:51:57;10.57;;;4.90;;
11699;SDS011;5906;51.660;6.674;2023-09-07T14:54:24;6.30;;;5.10;;
11699;SDS011;5906;51.660;6.674;2023-09-07T14:56:50;5.77;;;5.10;;
11699;SDS011;5906;51.660;6.674;2023-09-07T14:59:18;8.00;;;4.77;;